createdAt,value
2022-10-09T00:01:19.950Z,0.47
2022-10-09T00:03:50.155Z,0.80
2022-10-09T00:06:21.505Z,0.90
2022-10-09T00:08:49.253Z,0.50
2022-10-09T00:11:19.598Z,0.73
2022-10-09T00:13:49.535Z,0.77
2022-10-09T00:16:18.376Z,0.60
2022-10-09T00:18:46.469Z,1.73
2022-10-09T00:21:20.605Z,0.60
2022-10-09T00:23:48.827Z,0.83
2022-10-09T00:26:17.190Z,0.47
2022-10-09T00:28:45.455Z,0.50
2022-10-09T00:31:14.931Z,0.63
2022-10-09T00:33:42.727Z,0.50
2022-10-09T00:36:16.346Z,0.80
2022-10-09T00:38:44.243Z,0.50
2022-10-09T00:41:15.230Z,0.63
2022-10-09T00:43:46.417Z,1.27
2022-10-09T00:46:39.679Z,0.83
2022-10-09T00:49:15.960Z,0.50
2022-10-09T00:51:46.777Z,0.93
2022-10-09T00:54:17.992Z,0.60
2022-10-09T00:56:45.762Z,0.90
2022-10-09T00:59:13.825Z,0.60
2022-10-09T01:01:43.429Z,0.87
2022-10-09T01:04:11.382Z,0.93
2022-10-09T01:06:53.057Z,1.20
2022-10-09T01:09:25.138Z,1.00
2022-10-09T01:11:59.790Z,0.67
2022-10-09T01:14:29.967Z,0.63
2022-10-09T01:17:08.883Z,0.87
2022-10-09T01:19:51.175Z,0.50
2022-10-09T01:22:33.716Z,0.93
2022-10-09T01:25:07.100Z,0.83
2022-10-09T01:27:37.945Z,1.03
2022-10-09T01:30:09.118Z,0.70
2022-10-09T01:32:39.654Z,1.30
2022-10-09T01:35:09.644Z,0.90
2022-10-09T01:37:39.630Z,1.37
2022-10-09T01:40:09.915Z,0.87
2022-10-09T01:42:39.659Z,0.60
2022-10-09T01:45:10.670Z,0.80
2022-10-09T01:47:39.044Z,0.73
2022-10-09T01:50:15.580Z,0.70
2022-10-09T01:52:48.264Z,1.00
2022-10-09T01:55:26.581Z,1.10
2022-10-09T01:58:02.356Z,1.10
2022-10-09T02:00:34.286Z,0.80
2022-10-09T02:03:05.457Z,1.10
2022-10-09T02:05:33.586Z,0.70
2022-10-09T02:08:01.696Z,0.80
2022-10-09T02:10:30.876Z,0.80
2022-10-09T02:13:01.425Z,0.80
2022-10-09T02:15:35.703Z,0.70
2022-10-09T02:18:06.073Z,0.80
2022-10-09T02:20:37.056Z,0.90
2022-10-09T02:23:08.503Z,0.80
2022-10-09T02:25:36.828Z,0.77
2022-10-09T02:28:06.907Z,0.80
2022-10-09T02:30:40.099Z,1.13
2022-10-09T02:33:07.817Z,1.40
2022-10-09T02:35:36.147Z,0.97
2022-10-09T02:38:03.849Z,0.77
2022-10-09T02:40:31.554Z,1.00
2022-10-09T02:42:59.264Z,0.67
2022-10-09T02:45:28.266Z,1.00
2022-10-09T02:47:56.016Z,0.90
2022-10-09T02:50:23.910Z,1.07
2022-10-09T02:52:51.855Z,1.17
2022-10-09T02:55:19.706Z,1.30
2022-10-09T02:57:47.591Z,1.17
2022-10-09T03:00:16.209Z,1.30
2022-10-09T03:02:45.510Z,1.03
2022-10-09T03:05:13.360Z,1.13
2022-10-09T03:07:41.088Z,0.70
2022-10-09T03:10:09.784Z,1.40
2022-10-09T03:12:37.484Z,1.20
2022-10-09T03:15:05.999Z,1.03
2022-10-09T03:17:33.721Z,0.80
2022-10-09T03:20:03.098Z,1.33
2022-10-09T03:22:30.874Z,1.23
2022-10-09T03:24:58.579Z,0.70
2022-10-09T03:27:26.396Z,1.07
2022-10-09T03:29:54.123Z,1.30
2022-10-09T03:32:21.930Z,1.13
2022-10-09T03:34:49.727Z,0.90
2022-10-09T03:37:19.278Z,0.80
2022-10-09T03:39:47.061Z,1.10
2022-10-09T03:42:14.837Z,0.77
2022-10-09T03:44:42.571Z,1.20
2022-10-09T03:47:10.337Z,0.80
2022-10-09T03:49:38.042Z,1.20
2022-10-09T03:52:05.769Z,1.37
2022-10-09T03:54:34.826Z,1.00
2022-10-09T03:57:02.572Z,1.27
2022-10-09T03:59:30.242Z,0.83
2022-10-09T04:01:58.422Z,0.83
2022-10-09T04:04:26.139Z,0.90
2022-10-09T04:06:53.853Z,1.00
2022-10-09T04:09:21.589Z,1.20
2022-10-09T04:11:50.598Z,1.03
2022-10-09T04:14:18.297Z,1.20
2022-10-09T04:16:46.057Z,1.27
2022-10-09T04:19:13.916Z,0.80
2022-10-09T04:21:41.718Z,1.10
2022-10-09T04:24:09.596Z,0.80
2022-10-09T04:26:37.323Z,0.80
2022-10-09T04:29:06.362Z,0.83
2022-10-09T04:31:34.187Z,0.80
2022-10-09T04:34:01.948Z,0.73
2022-10-09T04:36:29.783Z,0.80
2022-10-09T04:38:57.470Z,0.97
2022-10-09T04:41:25.240Z,1.10
2022-10-09T04:43:55.919Z,0.77
2022-10-09T04:46:25.393Z,0.60
2022-10-09T04:48:53.101Z,0.70
2022-10-09T04:51:20.841Z,0.60
2022-10-09T04:53:48.695Z,1.10
2022-10-09T04:56:18.378Z,0.60
2022-10-09T04:58:47.255Z,1.20
2022-10-09T05:01:16.801Z,0.83
2022-10-09T05:03:46.249Z,0.70
2022-10-09T05:06:15.114Z,1.13
2022-10-09T05:08:43.210Z,1.27
2022-10-09T05:11:13.345Z,0.87
2022-10-09T05:13:43.143Z,1.00
2022-10-09T05:16:12.979Z,0.90
2022-10-09T05:18:43.058Z,0.93
2022-10-09T05:21:12.511Z,0.53
2022-10-09T05:23:40.722Z,0.83
2022-10-09T05:26:11.801Z,0.90
2022-10-09T05:28:48.862Z,0.77
2022-10-09T05:31:21.012Z,1.37
2022-10-09T05:33:49.374Z,1.33
2022-10-09T05:36:19.032Z,1.17
2022-10-09T05:38:47.397Z,0.83
2022-10-09T05:41:16.607Z,0.93
2022-10-09T05:43:47.085Z,1.30
2022-10-09T05:46:16.660Z,1.30
2022-10-09T05:48:47.190Z,0.70
2022-10-09T05:51:16.589Z,0.97
2022-10-09T05:53:47.311Z,0.87
2022-10-09T05:56:17.380Z,1.27
2022-10-09T05:58:46.329Z,0.70
2022-10-09T06:01:14.177Z,1.27
2022-10-09T06:03:41.914Z,1.43
2022-10-09T06:06:09.812Z,0.80
2022-10-09T06:08:39.194Z,1.17
2022-10-09T06:11:15.969Z,0.93
2022-10-09T06:13:44.526Z,0.97
2022-10-09T06:16:13.994Z,0.50
2022-10-09T06:18:45.519Z,1.00
2022-10-09T06:21:17.590Z,0.93
2022-10-09T06:23:45.416Z,0.70
2022-10-09T06:26:14.770Z,1.27
2022-10-09T06:28:42.649Z,0.90
2022-10-09T06:31:12.141Z,0.93
2022-10-09T06:33:41.980Z,1.00
2022-10-09T06:36:11.266Z,0.90
2022-10-09T06:38:39.636Z,1.30
2022-10-09T06:41:09.871Z,0.90
2022-10-09T06:43:39.079Z,0.90
2022-10-09T06:46:10.379Z,0.90
2022-10-09T06:48:39.529Z,1.23
2022-10-09T06:51:08.925Z,1.17
2022-10-09T06:53:37.736Z,0.73
2022-10-09T06:56:06.205Z,0.60
2022-10-09T06:58:34.180Z,1.00
2022-10-09T07:01:08.759Z,1.10
2022-10-09T07:03:38.067Z,1.00
2022-10-09T07:06:11.212Z,1.10
2022-10-09T07:08:39.932Z,0.70
2022-10-09T07:11:12.738Z,1.00
2022-10-09T07:13:41.171Z,1.30
2022-10-09T07:16:10.747Z,1.23
2022-10-09T07:18:39.273Z,1.00
2022-10-09T07:21:08.638Z,1.00
2022-10-09T07:23:37.705Z,1.13
2022-10-09T07:26:12.464Z,1.20
2022-10-09T07:28:41.185Z,1.27
2022-10-09T07:31:11.230Z,0.77
2022-10-09T07:33:39.792Z,1.27
2022-10-09T07:36:09.547Z,0.90
2022-10-09T07:38:37.742Z,1.10
2022-10-09T07:41:07.330Z,0.90
2022-10-09T07:43:36.865Z,1.00
2022-10-09T07:46:05.976Z,1.10
2022-10-09T07:48:35.435Z,0.90
2022-10-09T07:51:09.820Z,0.97
2022-10-09T07:53:38.006Z,0.87
2022-10-09T07:56:06.302Z,0.77
2022-10-09T07:58:34.681Z,0.90
2022-10-09T08:01:06.828Z,0.87
2022-10-09T08:03:36.050Z,1.10
2022-10-09T08:06:04.554Z,0.53
2022-10-09T08:08:32.329Z,0.80
2022-10-09T08:11:00.492Z,0.90
2022-10-09T08:13:28.393Z,0.87
2022-10-09T08:15:59.486Z,0.63
2022-10-09T08:18:27.279Z,1.10
2022-10-09T08:21:00.929Z,0.83
2022-10-09T08:23:29.129Z,0.53
2022-10-09T08:25:57.605Z,0.70
2022-10-09T08:28:25.365Z,0.63
2022-10-09T08:30:53.369Z,0.70
2022-10-09T08:33:22.109Z,1.27
2022-10-09T08:35:50.094Z,0.80
2022-10-09T08:38:44.915Z,0.60
2022-10-09T08:41:11.313Z,0.60
2022-10-09T08:43:44.657Z,0.63
2022-10-09T08:46:21.393Z,0.50
2022-10-09T08:48:51.353Z,0.53
2022-10-09T08:51:24.182Z,0.37
2022-10-09T08:53:59.867Z,0.70
2022-10-09T08:56:28.175Z,0.40
2022-10-09T08:58:56.769Z,0.83
2022-10-09T09:01:33.322Z,0.70
2022-10-09T09:04:22.451Z,0.50
2022-10-09T09:06:58.254Z,0.47
2022-10-09T09:09:40.268Z,0.50
2022-10-09T09:12:17.835Z,0.20
2022-10-09T09:14:59.047Z,0.50
2022-10-09T09:17:32.645Z,0.40
2022-10-09T09:20:15.485Z,0.90
2022-10-09T09:22:48.363Z,0.20
2022-10-09T09:25:22.554Z,0.33
2022-10-09T09:27:52.417Z,0.30
2022-10-09T09:30:22.441Z,0.50
2022-10-09T09:32:57.783Z,0.47
2022-10-09T09:35:33.263Z,0.40
2022-10-09T09:38:01.237Z,0.30
2022-10-09T09:40:37.998Z,0.30
2022-10-09T09:43:16.017Z,0.67
2022-10-09T09:45:44.724Z,0.50
2022-10-09T09:48:16.344Z,0.87
2022-10-09T09:50:52.938Z,0.40
2022-10-09T09:53:29.241Z,0.37
2022-10-09T09:55:58.423Z,0.30
2022-10-09T09:58:34.753Z,0.40
2022-10-09T10:01:06.300Z,0.57
2022-10-09T10:03:37.922Z,0.60
2022-10-09T10:06:06.076Z,0.70
2022-10-09T10:08:35.343Z,0.47
2022-10-09T10:11:07.717Z,0.27
2022-10-09T10:13:38.512Z,0.20
2022-10-09T10:16:08.584Z,0.53
2022-10-09T10:18:41.325Z,0.40
2022-10-09T10:21:12.956Z,0.70
2022-10-09T10:23:43.763Z,0.70
2022-10-09T10:26:21.364Z,0.50
2022-10-09T10:28:53.125Z,0.60
2022-10-09T10:31:34.814Z,0.20
2022-10-09T10:34:05.822Z,0.33
2022-10-09T10:36:34.914Z,0.30
2022-10-09T10:39:11.783Z,0.57
2022-10-09T10:41:45.202Z,0.70
2022-10-09T10:44:21.246Z,0.30
2022-10-09T10:46:54.252Z,1.03
2022-10-09T10:49:28.417Z,0.47
2022-10-09T10:52:18.213Z,0.40
2022-10-09T10:54:52.001Z,0.23
2022-10-09T10:57:25.000Z,0.30
2022-10-09T11:00:04.042Z,0.40
2022-10-09T11:03:06.216Z,0.40
2022-10-09T11:05:47.364Z,0.53
2022-10-09T11:08:31.167Z,0.40
2022-10-09T11:11:06.213Z,0.40
2022-10-09T11:13:47.996Z,0.23
2022-10-09T11:16:28.721Z,0.30
2022-10-09T11:19:09.363Z,0.40
2022-10-09T11:21:46.483Z,0.20
2022-10-09T11:24:41.800Z,0.27
2022-10-09T11:27:15.039Z,0.60
2022-10-09T11:29:49.698Z,0.47
2022-10-09T11:32:21.870Z,0.30
2022-10-09T11:34:55.914Z,0.40
2022-10-09T11:37:34.769Z,0.40
2022-10-09T11:40:08.465Z,0.33
2022-10-09T11:42:36.903Z,0.40
2022-10-09T11:45:19.377Z,0.30
2022-10-09T11:47:55.842Z,0.40
2022-10-09T11:50:40.500Z,0.30
2022-10-09T11:53:13.583Z,0.50
2022-10-09T11:55:42.679Z,0.40
2022-10-09T11:58:18.353Z,0.60
2022-10-09T12:00:52.264Z,0.63
2022-10-09T12:03:33.298Z,0.30
2022-10-09T12:06:08.619Z,0.50
2022-10-09T12:08:37.543Z,0.50
2022-10-09T12:11:17.470Z,0.40
2022-10-09T12:13:51.812Z,0.43
2022-10-09T12:16:43.109Z,0.43
2022-10-09T12:19:20.787Z,0.20
2022-10-09T12:21:53.286Z,0.40
2022-10-09T12:24:24.886Z,0.17
2022-10-09T12:26:56.099Z,0.53
2022-10-09T12:29:28.202Z,0.50
2022-10-09T12:32:03.609Z,0.20
2022-10-09T12:34:35.402Z,0.50
2022-10-09T12:37:13.746Z,0.33
2022-10-09T12:39:42.107Z,0.40
2022-10-09T12:42:17.018Z,0.50
2022-10-09T12:44:46.058Z,0.30
2022-10-09T12:47:22.019Z,0.30
2022-10-09T12:50:00.710Z,0.50
2022-10-09T12:52:29.337Z,0.70
2022-10-09T12:54:57.471Z,0.50
2022-10-09T12:57:27.700Z,0.50
2022-10-09T12:59:57.053Z,0.40
2022-10-09T13:02:26.258Z,0.50
2022-10-09T13:05:00.683Z,0.40
2022-10-09T13:07:30.761Z,0.33
2022-10-09T13:10:01.722Z,0.40
2022-10-09T13:12:31.638Z,0.40
2022-10-09T13:15:01.275Z,0.30
2022-10-09T13:17:36.156Z,0.60
2022-10-09T13:20:23.874Z,0.27
2022-10-09T13:23:27.559Z,0.47
2022-10-09T13:25:56.497Z,0.57
2022-10-09T13:28:26.740Z,0.53
2022-10-09T13:30:54.587Z,0.40
2022-10-09T13:33:23.852Z,0.20
2022-10-09T13:35:53.710Z,0.40
2022-10-09T13:38:24.559Z,0.40
2022-10-09T13:40:52.330Z,0.40
2022-10-09T13:43:23.646Z,0.63
2022-10-09T13:45:51.385Z,0.60
2022-10-09T13:48:19.439Z,0.17
2022-10-09T13:50:48.620Z,0.30
2022-10-09T13:53:16.611Z,0.40
2022-10-09T13:55:44.495Z,0.50
2022-10-09T13:58:13.881Z,0.40
2022-10-09T14:00:41.591Z,0.40
2022-10-09T14:03:11.046Z,0.40
2022-10-09T14:05:38.772Z,0.87
2022-10-09T14:08:10.294Z,0.43
2022-10-09T14:10:41.898Z,0.50
2022-10-09T14:13:09.783Z,0.37
2022-10-09T14:15:40.246Z,0.53
2022-10-09T14:18:08.732Z,0.50
2022-10-09T14:20:37.123Z,0.50
2022-10-09T14:23:04.896Z,0.27
2022-10-09T14:25:35.635Z,0.40
2022-10-09T14:28:03.422Z,0.20
2022-10-09T14:30:31.220Z,0.67
2022-10-09T14:32:59.345Z,0.30
2022-10-09T14:35:27.125Z,0.40
2022-10-09T14:37:54.807Z,1.13
2022-10-09T14:40:22.529Z,1.10
2022-10-09T14:42:51.812Z,0.50
2022-10-09T14:45:19.915Z,0.57
2022-10-09T14:47:47.614Z,0.60
2022-10-09T14:50:18.146Z,0.43
2022-10-09T14:52:48.917Z,0.60
2022-10-09T14:55:20.674Z,0.50
2022-10-09T14:57:50.122Z,0.90
2022-10-09T15:00:19.533Z,0.57
2022-10-09T15:02:47.280Z,0.30
2022-10-09T15:05:15.274Z,0.70
2022-10-09T15:07:45.851Z,0.37
2022-10-09T15:10:16.536Z,0.30
2022-10-09T15:12:45.518Z,0.60
2022-10-09T15:15:16.114Z,0.40
2022-10-09T15:17:45.134Z,0.27
2022-10-09T15:20:15.001Z,0.67
2022-10-09T15:22:45.614Z,0.70
2022-10-09T15:25:15.742Z,0.40
2022-10-09T15:27:43.543Z,0.73
2022-10-09T15:30:12.585Z,0.47
2022-10-09T15:32:40.380Z,0.50
2022-10-09T15:35:10.486Z,0.47
2022-10-09T15:37:38.210Z,0.40
2022-10-09T15:40:06.766Z,0.50
2022-10-09T15:42:36.845Z,1.20
2022-10-09T15:45:04.973Z,0.50
2022-10-09T15:47:50.071Z,0.73
2022-10-09T15:50:20.167Z,0.60
2022-10-09T15:52:48.123Z,0.70
2022-10-09T15:55:18.315Z,0.70
2022-10-09T15:57:45.994Z,1.23
2022-10-09T16:00:15.856Z,1.37
2022-10-09T16:02:53.135Z,0.83
2022-10-09T16:05:22.131Z,0.60
2022-10-09T16:07:49.924Z,0.90
2022-10-09T16:10:17.733Z,0.60
2022-10-09T16:12:45.527Z,0.50
2022-10-09T16:15:13.292Z,0.60
2022-10-09T16:17:40.994Z,0.87
2022-10-09T16:20:12.050Z,0.80
2022-10-09T16:22:41.091Z,0.80
2022-10-09T16:25:09.616Z,0.90
2022-10-09T16:27:37.397Z,0.63
2022-10-09T16:30:05.945Z,0.60
2022-10-09T16:32:33.756Z,0.70
2022-10-09T16:35:03.749Z,0.60
2022-10-09T16:37:31.448Z,0.70
2022-10-09T16:40:09.535Z,0.90
2022-10-09T16:42:37.286Z,0.70
2022-10-09T16:45:05.849Z,0.67
2022-10-09T16:47:33.987Z,0.80
2022-10-09T16:50:01.702Z,0.83
2022-10-09T16:52:29.459Z,0.80
2022-10-09T16:55:00.290Z,0.93
2022-10-09T16:57:29.859Z,0.70
2022-10-09T16:59:57.609Z,0.80
2022-10-09T17:02:26.632Z,1.03
2022-10-09T17:04:54.325Z,1.17
2022-10-09T17:07:23.101Z,0.90
2022-10-09T17:09:50.997Z,1.47
2022-10-09T17:12:22.292Z,1.70
2022-10-09T17:14:55.707Z,1.50
2022-10-09T17:17:23.462Z,1.00
2022-10-09T17:19:53.971Z,1.20
2022-10-09T17:22:23.906Z,1.00
2022-10-09T17:24:53.896Z,0.90
2022-10-09T17:27:22.766Z,1.40
2022-10-09T17:29:54.569Z,1.20
2022-10-09T17:32:22.652Z,1.40
2022-10-09T17:34:51.858Z,1.40
2022-10-09T17:37:19.777Z,1.73
2022-10-09T17:39:52.051Z,0.97
2022-10-09T17:42:20.494Z,1.17
2022-10-09T17:44:48.191Z,1.07
2022-10-09T17:47:17.299Z,1.27
2022-10-09T17:49:45.009Z,1.80
2022-10-09T17:52:12.745Z,1.03
2022-10-09T17:54:40.448Z,1.00
2022-10-09T17:57:12.020Z,1.07
2022-10-09T17:59:39.982Z,1.20
2022-10-09T18:02:07.814Z,0.80
2022-10-09T18:04:36.837Z,1.00
2022-10-09T18:07:05.928Z,1.17
2022-10-09T18:09:33.711Z,0.60
2022-10-09T18:12:04.782Z,1.13
2022-10-09T18:14:32.476Z,0.87
2022-10-09T18:17:00.181Z,1.33
2022-10-09T18:19:27.925Z,1.20
2022-10-09T18:21:57.056Z,1.20
2022-10-09T18:24:24.806Z,1.73
2022-10-09T18:26:52.895Z,1.57
2022-10-09T18:29:20.597Z,1.43
2022-10-09T18:31:50.313Z,1.10
2022-10-09T18:34:21.117Z,1.20
2022-10-09T18:36:50.557Z,1.13
2022-10-09T18:39:21.541Z,1.30
2022-10-09T18:41:49.517Z,1.10
2022-10-09T18:44:20.608Z,1.30
2022-10-09T18:46:51.499Z,1.20
2022-10-09T18:49:24.550Z,1.10
2022-10-09T18:51:54.980Z,1.20
2022-10-09T18:54:25.807Z,1.43
2022-10-09T18:56:53.899Z,1.03
2022-10-09T18:59:23.550Z,1.37
2022-10-09T19:01:51.250Z,1.37
2022-10-09T19:04:19.143Z,1.33
2022-10-09T19:06:47.029Z,1.47
2022-10-09T19:09:14.767Z,1.20
2022-10-09T19:11:43.878Z,1.37
2022-10-09T19:14:11.855Z,1.27
2022-10-09T19:16:39.700Z,1.50
2022-10-09T19:19:07.427Z,1.03
2022-10-09T19:21:36.283Z,1.37
2022-10-09T19:24:06.116Z,1.17
2022-10-09T19:26:35.218Z,1.30
2022-10-09T19:29:05.785Z,1.60
2022-10-09T19:31:34.134Z,1.20
2022-10-09T19:34:02.940Z,1.40
2022-10-09T19:36:33.201Z,1.20
2022-10-09T19:39:01.023Z,1.33
2022-10-09T19:41:28.852Z,1.00
2022-10-09T19:43:56.592Z,1.00
2022-10-09T19:46:25.843Z,1.40
2022-10-09T19:48:54.027Z,1.30
2022-10-09T19:51:24.427Z,1.60
2022-10-09T19:53:53.550Z,1.50
2022-10-09T19:56:24.926Z,1.43
2022-10-09T19:58:56.812Z,1.10
2022-10-09T20:01:27.346Z,1.00
2022-10-09T20:03:56.393Z,1.00
2022-10-09T20:06:24.090Z,1.20
2022-10-09T20:08:51.988Z,1.13
2022-10-09T20:11:20.503Z,1.13
2022-10-09T20:13:53.413Z,1.63
2022-10-09T20:16:25.554Z,1.17
2022-10-09T20:18:55.153Z,1.00
2022-10-09T20:21:23.278Z,0.80
2022-10-09T20:23:50.995Z,1.10
2022-10-09T20:26:20.415Z,1.10
2022-10-09T20:28:49.370Z,1.27
2022-10-09T20:31:19.442Z,0.63
2022-10-09T20:33:49.822Z,0.80
2022-10-09T20:36:35.089Z,0.90
2022-10-09T20:39:05.568Z,1.10
2022-10-09T20:41:34.163Z,1.00
2022-10-09T20:44:03.216Z,1.10
2022-10-09T20:46:32.977Z,1.10
2022-10-09T20:49:07.479Z,1.30
2022-10-09T20:51:36.828Z,1.37
2022-10-09T20:54:05.539Z,1.30
2022-10-09T20:56:34.602Z,1.20
2022-10-09T20:59:03.060Z,1.10
2022-10-09T21:01:31.145Z,1.23
2022-10-09T21:03:59.952Z,1.40
2022-10-09T21:06:30.017Z,1.10
2022-10-09T21:08:58.155Z,0.83
2022-10-09T21:11:28.494Z,1.73
2022-10-09T21:13:58.757Z,1.87
2022-10-09T21:16:31.760Z,1.10
2022-10-09T21:19:01.599Z,1.63
2022-10-09T21:21:35.127Z,1.00
2022-10-09T21:24:03.944Z,1.57
2022-10-09T21:26:35.222Z,1.33
2022-10-09T21:29:04.035Z,1.10
2022-10-09T21:31:32.892Z,1.23
2022-10-09T21:34:01.998Z,1.40
2022-10-09T21:36:47.141Z,2.23
2022-10-09T21:39:26.616Z,1.57
2022-10-09T21:41:54.321Z,1.83
2022-10-09T21:44:22.160Z,1.83
2022-10-09T21:46:49.956Z,2.07
2022-10-09T21:49:20.861Z,2.07
2022-10-09T21:51:50.629Z,2.33
2022-10-09T21:54:18.381Z,1.27
2022-10-09T21:56:46.219Z,1.83
2022-10-09T21:59:14.188Z,1.37
2022-10-09T22:01:45.004Z,1.53
2022-10-09T22:04:12.728Z,1.40
2022-10-09T22:06:41.317Z,1.30
2022-10-09T22:09:12.852Z,1.70
2022-10-09T22:11:40.709Z,1.20
2022-10-09T22:14:11.950Z,1.30
2022-10-09T22:16:42.166Z,1.27
2022-10-09T22:19:09.935Z,0.93
2022-10-09T22:21:39.546Z,1.13
2022-10-09T22:24:09.735Z,1.20
2022-10-09T22:26:38.792Z,1.43
2022-10-09T22:29:08.799Z,1.30
2022-10-09T22:31:36.621Z,1.40
2022-10-09T22:34:07.047Z,1.03
2022-10-09T22:36:39.896Z,1.10
2022-10-09T22:39:08.569Z,1.13
2022-10-09T22:41:38.549Z,0.70
2022-10-09T22:44:08.732Z,1.40
2022-10-09T22:46:39.676Z,1.40
2022-10-09T22:49:08.576Z,1.50
2022-10-09T22:51:36.510Z,1.20
2022-10-09T22:54:04.790Z,1.70
2022-10-09T22:56:37.139Z,1.20
2022-10-09T22:59:07.012Z,1.17
2022-10-09T23:01:37.240Z,1.07
2022-10-09T23:04:10.074Z,1.43
2022-10-09T23:06:39.392Z,1.20
2022-10-09T23:09:10.338Z,1.30
2022-10-09T23:11:38.349Z,1.40
2022-10-09T23:14:11.916Z,1.03
2022-10-09T23:16:40.567Z,1.07
2022-10-09T23:19:08.546Z,1.40
2022-10-09T23:21:40.542Z,1.33
2022-10-09T23:24:09.237Z,1.30
2022-10-09T23:26:37.884Z,1.00
2022-10-09T23:29:07.969Z,1.30
2022-10-09T23:31:37.612Z,1.00
2022-10-09T23:34:06.216Z,1.13
2022-10-09T23:36:34.350Z,1.10
2022-10-09T23:39:03.140Z,1.10
2022-10-09T23:41:31.166Z,1.20
2022-10-09T23:43:59.297Z,1.30
2022-10-09T23:46:29.110Z,1.03
2022-10-09T23:48:58.232Z,0.80
2022-10-09T23:51:26.964Z,1.30
2022-10-09T23:53:54.885Z,1.20
2022-10-09T23:56:24.839Z,1.00
2022-10-09T23:58:54.261Z,1.17
